sensor_id;sensor_type;location;lat;lon;timestamp;P1;durP1;ratioP1;P2;durP2;ratioP2
31910;SDS011;18457;52.432;16.914;2024-03-25T00:01:17;20.60;;;9.60;;
31910;SDS011;18457;52.432;16.914;2024-03-25T00:03:49;19.10;;;9.20;;
31910;SDS011;18457;52.432;16.914;2024-03-25T00:06:20;19.60;;;8.90;;
31910;SDS011;18457;52.432;16.914;2024-03-25T00:08:51;16.80;;;8.80;;
31910;SDS011;18457;52.432;16.914;2024-03-25T00:11:23;14.10;;;7.70;;
31910;SDS011;18457;52.432;16.914;2024-03-25T00:13:54;18.70;;;9.00;;
31910;SDS011;18457;52.432;16.914;2024-03-25T00:16:26;11.50;;;7.00;;
31910;SDS011;18457;52.432;16.914;2024-03-25T00:18:57;10.80;;;6.70;;
31910;SDS011;18457;52.432;16.914;2024-03-25T00:21:29;10.40;;;5.40;;
31910;SDS011;18457;52.432;16.914;2024-03-25T00:24:00;13.80;;;7.60;;
31910;SDS011;18457;52.432;16.914;2024-03-25T00:26:31;14.80;;;7.60;;
31910;SDS011;18457;52.432;16.914;2024-03-25T00:29:03;14.50;;;8.10;;
31910;SDS011;18457;52.432;16.914;2024-03-25T00:31:34;16.50;;;9.00;;
31910;SDS011;18457;52.432;16.914;2024-03-25T00:34:05;14.10;;;8.20;;
31910;SDS011;18457;52.432;16.914;2024-03-25T00:36:36;15.20;;;8.00;;
31910;SDS011;18457;52.432;16.914;2024-03-25T00:39:08;17.90;;;8.30;;
31910;SDS011;18457;52.432;16.914;2024-03-25T00:41:40;12.50;;;7.50;;
31910;SDS011;18457;52.432;16.914;2024-03-25T00:44:11;16.50;;;9.10;;
31910;SDS011;18457;52.432;16.914;2024-03-25T00:46:43;15.20;;;8.50;;
31910;SDS011;18457;52.432;16.914;2024-03-25T00:49:15;15.30;;;9.10;;
31910;SDS011;18457;52.432;16.914;2024-03-25T00:51:46;19.50;;;9.50;;
31910;SDS011;18457;52.432;16.914;2024-03-25T00:54:18;16.30;;;8.90;;
31910;SDS011;18457;52.432;16.914;2024-03-25T00:56:49;15.60;;;8.30;;
31910;SDS011;18457;52.432;16.914;2024-03-25T00:59:22;14.30;;;7.70;;
31910;SDS011;18457;52.432;16.914;2024-03-25T01:01:53;13.60;;;8.20;;
31910;SDS011;18457;52.432;16.914;2024-03-25T01:04:24;13.70;;;7.50;;
31910;SDS011;18457;52.432;16.914;2024-03-25T01:06:55;17.60;;;7.30;;
31910;SDS011;18457;52.432;16.914;2024-03-25T01:09:27;15.50;;;7.40;;
31910;SDS011;18457;52.432;16.914;2024-03-25T01:11:58;11.20;;;7.20;;
31910;SDS011;18457;52.432;16.914;2024-03-25T01:14:29;14.80;;;7.40;;
31910;SDS011;18457;52.432;16.914;2024-03-25T01:17:00;13.90;;;7.10;;
31910;SDS011;18457;52.432;16.914;2024-03-25T01:19:32;7.40;;;4.40;;
31910;SDS011;18457;52.432;16.914;2024-03-25T01:22:04;12.50;;;6.90;;
31910;SDS011;18457;52.432;16.914;2024-03-25T01:24:35;12.40;;;6.00;;
31910;SDS011;18457;52.432;16.914;2024-03-25T01:27:06;11.30;;;5.80;;
31910;SDS011;18457;52.432;16.914;2024-03-25T01:29:37;12.00;;;6.40;;
31910;SDS011;18457;52.432;16.914;2024-03-25T01:32:08;11.20;;;6.50;;
31910;SDS011;18457;52.432;16.914;2024-03-25T01:34:40;15.40;;;6.30;;
31910;SDS011;18457;52.432;16.914;2024-03-25T01:37:11;8.80;;;5.80;;
31910;SDS011;18457;52.432;16.914;2024-03-25T01:39:42;11.70;;;6.30;;
31910;SDS011;18457;52.432;16.914;2024-03-25T01:42:14;8.30;;;4.90;;
31910;SDS011;18457;52.432;16.914;2024-03-25T01:44:46;11.30;;;5.70;;
31910;SDS011;18457;52.432;16.914;2024-03-25T01:47:17;9.60;;;5.60;;
31910;SDS011;18457;52.432;16.914;2024-03-25T01:49:49;10.50;;;5.90;;
31910;SDS011;18457;52.432;16.914;2024-03-25T01:52:22;7.90;;;5.20;;
31910;SDS011;18457;52.432;16.914;2024-03-25T01:57:25;12.10;;;6.10;;
31910;SDS011;18457;52.432;16.914;2024-03-25T01:59:56;9.40;;;5.30;;
31910;SDS011;18457;52.432;16.914;2024-03-25T02:02:33;8.30;;;5.00;;
31910;SDS011;18457;52.432;16.914;2024-03-25T02:05:06;10.70;;;5.40;;
31910;SDS011;18457;52.432;16.914;2024-03-25T02:10:11;10.60;;;5.20;;
31910;SDS011;18457;52.432;16.914;2024-03-25T02:12:44;8.60;;;5.40;;
31910;SDS011;18457;52.432;16.914;2024-03-25T02:15:17;7.90;;;5.10;;
31910;SDS011;18457;52.432;16.914;2024-03-25T02:17:48;10.70;;;5.60;;
31910;SDS011;18457;52.432;16.914;2024-03-25T02:20:19;9.10;;;5.60;;
31910;SDS011;18457;52.432;16.914;2024-03-25T02:22:51;7.70;;;5.20;;
31910;SDS011;18457;52.432;16.914;2024-03-25T02:25:22;10.60;;;5.50;;
31910;SDS011;18457;52.432;16.914;2024-03-25T02:27:54;10.80;;;6.50;;
31910;SDS011;18457;52.432;16.914;2024-03-25T02:30:25;10.50;;;5.30;;
31910;SDS011;18457;52.432;16.914;2024-03-25T02:32:57;11.70;;;5.50;;
31910;SDS011;18457;52.432;16.914;2024-03-25T02:35:28;10.00;;;5.70;;
31910;SDS011;18457;52.432;16.914;2024-03-25T02:38:00;10.90;;;6.00;;
31910;SDS011;18457;52.432;16.914;2024-03-25T02:40:32;8.80;;;5.90;;
31910;SDS011;18457;52.432;16.914;2024-03-25T02:43:04;7.20;;;4.40;;
31910;SDS011;18457;52.432;16.914;2024-03-25T02:45:36;10.20;;;6.30;;
31910;SDS011;18457;52.432;16.914;2024-03-25T02:48:08;9.40;;;5.60;;
31910;SDS011;18457;52.432;16.914;2024-03-25T02:50:39;9.70;;;6.20;;
31910;SDS011;18457;52.432;16.914;2024-03-25T02:53:11;10.10;;;6.50;;
31910;SDS011;18457;52.432;16.914;2024-03-25T02:55:42;10.80;;;6.40;;
31910;SDS011;18457;52.432;16.914;2024-03-25T02:58:13;11.50;;;5.80;;
31910;SDS011;18457;52.432;16.914;2024-03-25T03:00:45;12.20;;;6.30;;
31910;SDS011;18457;52.432;16.914;2024-03-25T03:03:16;11.80;;;6.10;;
31910;SDS011;18457;52.432;16.914;2024-03-25T03:05:48;10.60;;;6.30;;
31910;SDS011;18457;52.432;16.914;2024-03-25T03:08:19;12.50;;;7.50;;
31910;SDS011;18457;52.432;16.914;2024-03-25T03:10:51;12.60;;;6.90;;
31910;SDS011;18457;52.432;16.914;2024-03-25T03:13:22;15.20;;;6.30;;
31910;SDS011;18457;52.432;16.914;2024-03-25T03:15:53;10.40;;;6.90;;
31910;SDS011;18457;52.432;16.914;2024-03-25T03:18:25;11.60;;;6.60;;
31910;SDS011;18457;52.432;16.914;2024-03-25T03:20:56;12.10;;;6.90;;
31910;SDS011;18457;52.432;16.914;2024-03-25T03:23:28;14.00;;;6.80;;
31910;SDS011;18457;52.432;16.914;2024-03-25T03:25:59;11.70;;;7.40;;
31910;SDS011;18457;52.432;16.914;2024-03-25T03:28:30;10.90;;;6.30;;
31910;SDS011;18457;52.432;16.914;2024-03-25T03:31:02;19.50;;;6.90;;
31910;SDS011;18457;52.432;16.914;2024-03-25T03:33:33;11.90;;;6.70;;
31910;SDS011;18457;52.432;16.914;2024-03-25T03:36:05;12.00;;;7.20;;
31910;SDS011;18457;52.432;16.914;2024-03-25T03:38:37;13.20;;;8.00;;
31910;SDS011;18457;52.432;16.914;2024-03-25T03:41:08;14.30;;;7.50;;
31910;SDS011;18457;52.432;16.914;2024-03-25T03:43:40;11.50;;;6.50;;
31910;SDS011;18457;52.432;16.914;2024-03-25T03:46:11;12.00;;;6.60;;
31910;SDS011;18457;52.432;16.914;2024-03-25T03:48:42;13.50;;;7.70;;
31910;SDS011;18457;52.432;16.914;2024-03-25T03:51:13;10.20;;;6.80;;
31910;SDS011;18457;52.432;16.914;2024-03-25T03:53:45;10.80;;;6.70;;
31910;SDS011;18457;52.432;16.914;2024-03-25T03:56:16;12.50;;;6.50;;
31910;SDS011;18457;52.432;16.914;2024-03-25T03:58:47;11.80;;;6.60;;
31910;SDS011;18457;52.432;16.914;2024-03-25T04:01:18;13.60;;;7.80;;
31910;SDS011;18457;52.432;16.914;2024-03-25T04:03:50;10.70;;;6.40;;
31910;SDS011;18457;52.432;16.914;2024-03-25T04:06:21;13.20;;;6.70;;
31910;SDS011;18457;52.432;16.914;2024-03-25T04:08:52;12.00;;;7.00;;
31910;SDS011;18457;52.432;16.914;2024-03-25T04:11:24;12.30;;;7.30;;
31910;SDS011;18457;52.432;16.914;2024-03-25T04:13:55;13.50;;;7.70;;
31910;SDS011;18457;52.432;16.914;2024-03-25T04:16:26;12.20;;;7.40;;
31910;SDS011;18457;52.432;16.914;2024-03-25T04:18:59;13.10;;;7.50;;
31910;SDS011;18457;52.432;16.914;2024-03-25T04:21:31;14.60;;;7.80;;
31910;SDS011;18457;52.432;16.914;2024-03-25T04:24:02;13.20;;;7.40;;
31910;SDS011;18457;52.432;16.914;2024-03-25T04:26:34;10.90;;;6.80;;
31910;SDS011;18457;52.432;16.914;2024-03-25T04:29:06;13.90;;;7.60;;
31910;SDS011;18457;52.432;16.914;2024-03-25T04:31:37;13.60;;;7.10;;
31910;SDS011;18457;52.432;16.914;2024-03-25T04:34:08;11.20;;;7.00;;
31910;SDS011;18457;52.432;16.914;2024-03-25T04:36:40;15.90;;;7.90;;
31910;SDS011;18457;52.432;16.914;2024-03-25T04:39:11;12.40;;;7.70;;
31910;SDS011;18457;52.432;16.914;2024-03-25T04:41:43;13.90;;;8.20;;
31910;SDS011;18457;52.432;16.914;2024-03-25T04:44:14;16.50;;;8.80;;
31910;SDS011;18457;52.432;16.914;2024-03-25T04:46:46;13.60;;;7.90;;
31910;SDS011;18457;52.432;16.914;2024-03-25T04:49:18;12.50;;;8.30;;
31910;SDS011;18457;52.432;16.914;2024-03-25T04:51:49;14.20;;;8.20;;
31910;SDS011;18457;52.432;16.914;2024-03-25T04:54:22;13.70;;;8.40;;
31910;SDS011;18457;52.432;16.914;2024-03-25T04:56:53;15.40;;;8.70;;
31910;SDS011;18457;52.432;16.914;2024-03-25T04:59:24;14.30;;;8.30;;
31910;SDS011;18457;52.432;16.914;2024-03-25T05:01:56;14.90;;;8.70;;
31910;SDS011;18457;52.432;16.914;2024-03-25T05:04:28;16.10;;;10.00;;
31910;SDS011;18457;52.432;16.914;2024-03-25T05:07:00;15.30;;;8.70;;
31910;SDS011;18457;52.432;16.914;2024-03-25T05:09:31;15.30;;;9.10;;
31910;SDS011;18457;52.432;16.914;2024-03-25T05:12:03;10.00;;;6.40;;
31910;SDS011;18457;52.432;16.914;2024-03-25T05:14:34;10.70;;;6.00;;
31910;SDS011;18457;52.432;16.914;2024-03-25T05:17:05;9.20;;;5.00;;
31910;SDS011;18457;52.432;16.914;2024-03-25T05:19:38;8.90;;;5.10;;
31910;SDS011;18457;52.432;16.914;2024-03-25T05:22:09;7.60;;;4.90;;
31910;SDS011;18457;52.432;16.914;2024-03-25T05:24:41;8.50;;;4.60;;
31910;SDS011;18457;52.432;16.914;2024-03-25T05:27:13;7.40;;;4.70;;
31910;SDS011;18457;52.432;16.914;2024-03-25T05:29:45;6.30;;;3.50;;
31910;SDS011;18457;52.432;16.914;2024-03-25T05:32:16;6.90;;;4.30;;
31910;SDS011;18457;52.432;16.914;2024-03-25T05:34:50;7.60;;;4.60;;
31910;SDS011;18457;52.432;16.914;2024-03-25T05:37:21;9.20;;;4.70;;
31910;SDS011;18457;52.432;16.914;2024-03-25T05:39:53;8.60;;;4.20;;
31910;SDS011;18457;52.432;16.914;2024-03-25T05:42:24;6.60;;;4.10;;
31910;SDS011;18457;52.432;16.914;2024-03-25T05:44:55;6.90;;;3.80;;
31910;SDS011;18457;52.432;16.914;2024-03-25T05:47:27;7.00;;;4.30;;
31910;SDS011;18457;52.432;16.914;2024-03-25T05:49:58;7.80;;;4.10;;
31910;SDS011;18457;52.432;16.914;2024-03-25T05:52:31;7.40;;;4.20;;
31910;SDS011;18457;52.432;16.914;2024-03-25T05:55:02;8.50;;;4.50;;
31910;SDS011;18457;52.432;16.914;2024-03-25T05:57:34;6.90;;;4.20;;
31910;SDS011;18457;52.432;16.914;2024-03-25T06:00:07;9.90;;;5.20;;
31910;SDS011;18457;52.432;16.914;2024-03-25T06:02:40;6.80;;;4.40;;
31910;SDS011;18457;52.432;16.914;2024-03-25T06:05:12;7.80;;;4.70;;
31910;SDS011;18457;52.432;16.914;2024-03-25T06:07:43;7.70;;;4.70;;
31910;SDS011;18457;52.432;16.914;2024-03-25T06:10:15;8.30;;;5.10;;
31910;SDS011;18457;52.432;16.914;2024-03-25T06:12:46;8.60;;;5.60;;
31910;SDS011;18457;52.432;16.914;2024-03-25T06:15:17;8.10;;;4.70;;
31910;SDS011;18457;52.432;16.914;2024-03-25T06:17:49;9.60;;;4.90;;
31910;SDS011;18457;52.432;16.914;2024-03-25T06:20:20;9.10;;;5.00;;
31910;SDS011;18457;52.432;16.914;2024-03-25T06:22:52;8.60;;;4.90;;
31910;SDS011;18457;52.432;16.914;2024-03-25T06:25:23;8.30;;;4.80;;
31910;SDS011;18457;52.432;16.914;2024-03-25T06:27:55;7.30;;;4.50;;
31910;SDS011;18457;52.432;16.914;2024-03-25T06:30:27;9.00;;;5.30;;
31910;SDS011;18457;52.432;16.914;2024-03-25T06:33:16;8.70;;;4.40;;
31910;SDS011;18457;52.432;16.914;2024-03-25T06:36:06;8.30;;;4.90;;
31910;SDS011;18457;52.432;16.914;2024-03-25T06:38:37;10.20;;;5.40;;
31910;SDS011;18457;52.432;16.914;2024-03-25T06:41:09;10.20;;;5.80;;
31910;SDS011;18457;52.432;16.914;2024-03-25T06:43:40;8.90;;;5.90;;
31910;SDS011;18457;52.432;16.914;2024-03-25T06:46:12;11.90;;;5.70;;
31910;SDS011;18457;52.432;16.914;2024-03-25T06:48:44;7.40;;;4.00;;
31910;SDS011;18457;52.432;16.914;2024-03-25T06:51:15;10.60;;;5.50;;
31910;SDS011;18457;52.432;16.914;2024-03-25T06:53:46;12.10;;;6.40;;
31910;SDS011;18457;52.432;16.914;2024-03-25T06:56:20;13.50;;;7.50;;
31910;SDS011;18457;52.432;16.914;2024-03-25T06:58:51;13.70;;;7.30;;
31910;SDS011;18457;52.432;16.914;2024-03-25T07:01:23;16.00;;;8.30;;
31910;SDS011;18457;52.432;16.914;2024-03-25T07:03:54;18.80;;;8.70;;
31910;SDS011;18457;52.432;16.914;2024-03-25T07:06:25;17.40;;;9.50;;
31910;SDS011;18457;52.432;16.914;2024-03-25T07:08:57;17.80;;;9.20;;
31910;SDS011;18457;52.432;16.914;2024-03-25T07:11:28;17.80;;;9.30;;
31910;SDS011;18457;52.432;16.914;2024-03-25T07:14:00;17.40;;;8.70;;
31910;SDS011;18457;52.432;16.914;2024-03-25T07:16:31;16.40;;;8.90;;
31910;SDS011;18457;52.432;16.914;2024-03-25T07:19:03;17.10;;;9.20;;
31910;SDS011;18457;52.432;16.914;2024-03-25T07:21:35;15.60;;;8.00;;
31910;SDS011;18457;52.432;16.914;2024-03-25T07:24:06;18.60;;;10.10;;
31910;SDS011;18457;52.432;16.914;2024-03-25T07:26:38;13.90;;;7.50;;
31910;SDS011;18457;52.432;16.914;2024-03-25T07:29:09;20.60;;;11.20;;
31910;SDS011;18457;52.432;16.914;2024-03-25T07:31:40;26.10;;;12.10;;
31910;SDS011;18457;52.432;16.914;2024-03-25T07:34:13;22.60;;;12.00;;
31910;SDS011;18457;52.432;16.914;2024-03-25T07:36:48;22.10;;;12.30;;
31910;SDS011;18457;52.432;16.914;2024-03-25T07:39:19;26.80;;;12.50;;
31910;SDS011;18457;52.432;16.914;2024-03-25T07:41:53;26.60;;;13.30;;
31910;SDS011;18457;52.432;16.914;2024-03-25T07:44:24;26.80;;;14.10;;
31910;SDS011;18457;52.432;16.914;2024-03-25T07:46:55;27.00;;;14.00;;
31910;SDS011;18457;52.432;16.914;2024-03-25T07:49:26;30.40;;;13.20;;
31910;SDS011;18457;52.432;16.914;2024-03-25T07:51:58;28.20;;;13.50;;
31910;SDS011;18457;52.432;16.914;2024-03-25T07:54:29;26.20;;;13.50;;
31910;SDS011;18457;52.432;16.914;2024-03-25T07:57:01;30.20;;;14.60;;
31910;SDS011;18457;52.432;16.914;2024-03-25T07:59:33;24.80;;;14.00;;
31910;SDS011;18457;52.432;16.914;2024-03-25T08:02:05;23.10;;;12.50;;
31910;SDS011;18457;52.432;16.914;2024-03-25T08:04:37;25.50;;;12.50;;
31910;SDS011;18457;52.432;16.914;2024-03-25T08:07:08;24.80;;;12.10;;
31910;SDS011;18457;52.432;16.914;2024-03-25T08:09:39;23.90;;;11.80;;
31910;SDS011;18457;52.432;16.914;2024-03-25T08:12:11;23.30;;;11.40;;
31910;SDS011;18457;52.432;16.914;2024-03-25T08:14:42;26.40;;;13.20;;
31910;SDS011;18457;52.432;16.914;2024-03-25T08:17:14;23.10;;;11.60;;
31910;SDS011;18457;52.432;16.914;2024-03-25T08:22:16;26.30;;;12.10;;
31910;SDS011;18457;52.432;16.914;2024-03-25T08:24:48;19.90;;;10.90;;
31910;SDS011;18457;52.432;16.914;2024-03-25T08:27:20;20.20;;;10.30;;
31910;SDS011;18457;52.432;16.914;2024-03-25T08:29:51;22.60;;;11.00;;
31910;SDS011;18457;52.432;16.914;2024-03-25T08:32:22;21.80;;;12.30;;
31910;SDS011;18457;52.432;16.914;2024-03-25T08:34:54;20.50;;;9.70;;
31910;SDS011;18457;52.432;16.914;2024-03-25T08:37:25;19.80;;;9.80;;
31910;SDS011;18457;52.432;16.914;2024-03-25T08:39:57;20.80;;;10.10;;
31910;SDS011;18457;52.432;16.914;2024-03-25T08:42:31;16.40;;;8.10;;
31910;SDS011;18457;52.432;16.914;2024-03-25T08:45:03;14.40;;;6.70;;
31910;SDS011;18457;52.432;16.914;2024-03-25T08:47:35;11.10;;;5.90;;
31910;SDS011;18457;52.432;16.914;2024-03-25T08:50:07;12.90;;;6.30;;
31910;SDS011;18457;52.432;16.914;2024-03-25T08:55:09;15.50;;;6.20;;
31910;SDS011;18457;52.432;16.914;2024-03-25T08:57:41;11.40;;;6.60;;
31910;SDS011;18457;52.432;16.914;2024-03-25T09:00:14;14.90;;;6.80;;
31910;SDS011;18457;52.432;16.914;2024-03-25T09:02:47;11.40;;;6.10;;
31910;SDS011;18457;52.432;16.914;2024-03-25T09:05:18;13.90;;;6.40;;
31910;SDS011;18457;52.432;16.914;2024-03-25T09:07:50;11.50;;;5.60;;
31910;SDS011;18457;52.432;16.914;2024-03-25T09:10:24;10.00;;;5.80;;
31910;SDS011;18457;52.432;16.914;2024-03-25T09:13:14;10.00;;;5.50;;
31910;SDS011;18457;52.432;16.914;2024-03-25T09:18:16;8.70;;;4.50;;
31910;SDS011;18457;52.432;16.914;2024-03-25T09:20:48;9.70;;;5.10;;
31910;SDS011;18457;52.432;16.914;2024-03-25T09:23:19;11.10;;;5.40;;
31910;SDS011;18457;52.432;16.914;2024-03-25T09:25:53;10.00;;;5.40;;
31910;SDS011;18457;52.432;16.914;2024-03-25T09:28:25;8.70;;;5.40;;
31910;SDS011;18457;52.432;16.914;2024-03-25T09:30:56;7.80;;;4.50;;
31910;SDS011;18457;52.432;16.914;2024-03-25T09:33:27;8.20;;;4.90;;
31910;SDS011;18457;52.432;16.914;2024-03-25T09:35:59;10.80;;;4.70;;
31910;SDS011;18457;52.432;16.914;2024-03-25T09:38:30;7.00;;;4.20;;
31910;SDS011;18457;52.432;16.914;2024-03-25T09:41:01;7.10;;;4.40;;
31910;SDS011;18457;52.432;16.914;2024-03-25T09:43:36;12.80;;;6.50;;
31910;SDS011;18457;52.432;16.914;2024-03-25T09:46:14;14.60;;;5.60;;
31910;SDS011;18457;52.432;16.914;2024-03-25T09:48:46;11.20;;;5.90;;
31910;SDS011;18457;52.432;16.914;2024-03-25T09:51:17;13.20;;;5.80;;
31910;SDS011;18457;52.432;16.914;2024-03-25T09:53:49;14.10;;;6.70;;
31910;SDS011;18457;52.432;16.914;2024-03-25T09:56:21;16.90;;;5.60;;
31910;SDS011;18457;52.432;16.914;2024-03-25T09:58:52;9.70;;;5.40;;
31910;SDS011;18457;52.432;16.914;2024-03-25T10:01:24;9.40;;;4.60;;
31910;SDS011;18457;52.432;16.914;2024-03-25T10:03:55;12.40;;;6.30;;
31910;SDS011;18457;52.432;16.914;2024-03-25T10:06:27;11.10;;;6.00;;
31910;SDS011;18457;52.432;16.914;2024-03-25T10:08:58;11.50;;;6.50;;
31910;SDS011;18457;52.432;16.914;2024-03-25T10:11:30;12.40;;;7.10;;
31910;SDS011;18457;52.432;16.914;2024-03-25T10:14:03;10.90;;;6.40;;
31910;SDS011;18457;52.432;16.914;2024-03-25T10:16:35;14.10;;;7.40;;
31910;SDS011;18457;52.432;16.914;2024-03-25T10:19:06;13.90;;;7.80;;
31910;SDS011;18457;52.432;16.914;2024-03-25T10:21:38;16.10;;;9.50;;
31910;SDS011;18457;52.432;16.914;2024-03-25T10:24:09;15.80;;;9.10;;
31910;SDS011;18457;52.432;16.914;2024-03-25T10:26:42;15.90;;;9.40;;
31910;SDS011;18457;52.432;16.914;2024-03-25T10:29:14;17.00;;;9.70;;
31910;SDS011;18457;52.432;16.914;2024-03-25T10:31:45;16.00;;;8.20;;
31910;SDS011;18457;52.432;16.914;2024-03-25T10:34:16;28.80;;;11.00;;
31910;SDS011;18457;52.432;16.914;2024-03-25T10:36:48;14.80;;;9.20;;
31910;SDS011;18457;52.432;16.914;2024-03-25T10:39:19;15.00;;;8.90;;
31910;SDS011;18457;52.432;16.914;2024-03-25T10:41:56;14.50;;;9.20;;
31910;SDS011;18457;52.432;16.914;2024-03-25T10:44:32;19.40;;;9.10;;
31910;SDS011;18457;52.432;16.914;2024-03-25T10:47:04;14.10;;;9.10;;
31910;SDS011;18457;52.432;16.914;2024-03-25T10:49:41;12.90;;;8.30;;
31910;SDS011;18457;52.432;16.914;2024-03-25T10:52:19;13.40;;;8.80;;
31910;SDS011;18457;52.432;16.914;2024-03-25T10:54:51;12.10;;;8.00;;
31910;SDS011;18457;52.432;16.914;2024-03-25T10:59:55;12.50;;;7.60;;
31910;SDS011;18457;52.432;16.914;2024-03-25T11:02:28;11.10;;;7.30;;
31910;SDS011;18457;52.432;16.914;2024-03-25T11:05:00;9.40;;;6.00;;
31910;SDS011;18457;52.432;16.914;2024-03-25T11:07:33;8.00;;;5.30;;
31910;SDS011;18457;52.432;16.914;2024-03-25T11:10:07;5.90;;;4.00;;
31910;SDS011;18457;52.432;16.914;2024-03-25T11:12:40;5.60;;;3.70;;
31910;SDS011;18457;52.432;16.914;2024-03-25T11:15:12;7.30;;;4.30;;
31910;SDS011;18457;52.432;16.914;2024-03-25T11:17:49;7.00;;;4.80;;
31910;SDS011;18457;52.432;16.914;2024-03-25T11:20:21;7.30;;;4.40;;
31910;SDS011;18457;52.432;16.914;2024-03-25T11:22:54;8.60;;;4.90;;
31910;SDS011;18457;52.432;16.914;2024-03-25T11:25:30;8.80;;;5.40;;
31910;SDS011;18457;52.432;16.914;2024-03-25T11:28:02;9.30;;;5.20;;
31910;SDS011;18457;52.432;16.914;2024-03-25T11:30:36;8.10;;;5.20;;
31910;SDS011;18457;52.432;16.914;2024-03-25T11:33:10;7.90;;;4.50;;
31910;SDS011;18457;52.432;16.914;2024-03-25T11:35:41;7.00;;;4.40;;
31910;SDS011;18457;52.432;16.914;2024-03-25T11:38:13;8.40;;;5.00;;
31910;SDS011;18457;52.432;16.914;2024-03-25T11:40:44;8.70;;;6.10;;
31910;SDS011;18457;52.432;16.914;2024-03-25T11:43:19;8.20;;;5.20;;
31910;SDS011;18457;52.432;16.914;2024-03-25T11:45:52;8.50;;;4.30;;
31910;SDS011;18457;52.432;16.914;2024-03-25T11:48:24;6.10;;;4.70;;
31910;SDS011;18457;52.432;16.914;2024-03-25T11:50:56;11.90;;;5.80;;
31910;SDS011;18457;52.432;16.914;2024-03-25T11:53:31;9.40;;;5.20;;
31910;SDS011;18457;52.432;16.914;2024-03-25T11:56:03;8.30;;;5.30;;
31910;SDS011;18457;52.432;16.914;2024-03-25T11:58:34;7.80;;;4.70;;
31910;SDS011;18457;52.432;16.914;2024-03-25T12:01:06;9.30;;;5.90;;
31910;SDS011;18457;52.432;16.914;2024-03-25T12:03:39;9.20;;;5.80;;
31910;SDS011;18457;52.432;16.914;2024-03-25T12:06:13;8.10;;;5.20;;
31910;SDS011;18457;52.432;16.914;2024-03-25T12:08:44;9.90;;;5.50;;
31910;SDS011;18457;52.432;16.914;2024-03-25T12:11:38;6.20;;;4.40;;
31910;SDS011;18457;52.432;16.914;2024-03-25T12:14:11;7.50;;;5.00;;
31910;SDS011;18457;52.432;16.914;2024-03-25T12:16:45;7.60;;;5.40;;
31910;SDS011;18457;52.432;16.914;2024-03-25T12:19:17;8.60;;;4.80;;
31910;SDS011;18457;52.432;16.914;2024-03-25T12:21:48;6.00;;;4.30;;
31910;SDS011;18457;52.432;16.914;2024-03-25T12:24:20;8.80;;;4.50;;
31910;SDS011;18457;52.432;16.914;2024-03-25T12:26:54;7.40;;;4.20;;
31910;SDS011;18457;52.432;16.914;2024-03-25T12:29:26;7.40;;;5.20;;
31910;SDS011;18457;52.432;16.914;2024-03-25T12:31:57;8.10;;;5.10;;
31910;SDS011;18457;52.432;16.914;2024-03-25T12:34:31;7.90;;;5.20;;
31910;SDS011;18457;52.432;16.914;2024-03-25T12:37:04;7.50;;;5.50;;
31910;SDS011;18457;52.432;16.914;2024-03-25T12:39:37;7.20;;;4.20;;
31910;SDS011;18457;52.432;16.914;2024-03-25T12:42:19;8.30;;;3.60;;
31910;SDS011;18457;52.432;16.914;2024-03-25T12:44:51;7.00;;;3.30;;
31910;SDS011;18457;52.432;16.914;2024-03-25T12:47:23;4.70;;;3.40;;
31910;SDS011;18457;52.432;16.914;2024-03-25T12:49:55;8.50;;;4.40;;
31910;SDS011;18457;52.432;16.914;2024-03-25T12:52:26;8.20;;;4.40;;
31910;SDS011;18457;52.432;16.914;2024-03-25T12:54:57;6.50;;;4.30;;
31910;SDS011;18457;52.432;16.914;2024-03-25T12:57:29;7.10;;;3.90;;
31910;SDS011;18457;52.432;16.914;2024-03-25T13:00:00;8.20;;;4.50;;
31910;SDS011;18457;52.432;16.914;2024-03-25T13:02:33;7.00;;;4.50;;
31910;SDS011;18457;52.432;16.914;2024-03-25T13:05:07;9.70;;;4.50;;
31910;SDS011;18457;52.432;16.914;2024-03-25T13:07:39;7.10;;;4.30;;
31910;SDS011;18457;52.432;16.914;2024-03-25T13:10:10;7.40;;;4.30;;
31910;SDS011;18457;52.432;16.914;2024-03-25T13:12:42;8.20;;;4.60;;
31910;SDS011;18457;52.432;16.914;2024-03-25T13:15:13;9.30;;;4.70;;
31910;SDS011;18457;52.432;16.914;2024-03-25T13:17:44;7.80;;;4.20;;
31910;SDS011;18457;52.432;16.914;2024-03-25T13:20:16;8.80;;;5.60;;
31910;SDS011;18457;52.432;16.914;2024-03-25T13:22:48;9.40;;;5.30;;
31910;SDS011;18457;52.432;16.914;2024-03-25T13:25:22;9.00;;;5.70;;
31910;SDS011;18457;52.432;16.914;2024-03-25T13:27:53;9.50;;;4.90;;
31910;SDS011;18457;52.432;16.914;2024-03-25T13:30:24;8.70;;;5.20;;
31910;SDS011;18457;52.432;16.914;2024-03-25T13:32:56;6.60;;;4.00;;
31910;SDS011;18457;52.432;16.914;2024-03-25T13:35:27;6.30;;;4.20;;
31910;SDS011;18457;52.432;16.914;2024-03-25T13:37:59;4.90;;;3.40;;
31910;SDS011;18457;52.432;16.914;2024-03-25T13:40:30;9.60;;;3.50;;
31910;SDS011;18457;52.432;16.914;2024-03-25T13:43:02;4.30;;;2.70;;
31910;SDS011;18457;52.432;16.914;2024-03-25T13:45:37;18.50;;;3.80;;
31910;SDS011;18457;52.432;16.914;2024-03-25T13:48:18;14.40;;;4.00;;
31910;SDS011;18457;52.432;16.914;2024-03-25T13:50:49;6.70;;;4.10;;
31910;SDS011;18457;52.432;16.914;2024-03-25T13:53:23;7.30;;;4.00;;
31910;SDS011;18457;52.432;16.914;2024-03-25T13:55:55;7.50;;;4.30;;
31910;SDS011;18457;52.432;16.914;2024-03-25T13:58:27;8.80;;;4.60;;
31910;SDS011;18457;52.432;16.914;2024-03-25T14:00:58;7.90;;;4.60;;
31910;SDS011;18457;52.432;16.914;2024-03-25T14:03:30;44.60;;;7.60;;
31910;SDS011;18457;52.432;16.914;2024-03-25T14:06:03;9.30;;;3.90;;
31910;SDS011;18457;52.432;16.914;2024-03-25T14:08:35;5.70;;;3.60;;
31910;SDS011;18457;52.432;16.914;2024-03-25T14:11:06;6.90;;;4.20;;
31910;SDS011;18457;52.432;16.914;2024-03-25T14:13:38;5.80;;;4.00;;
31910;SDS011;18457;52.432;16.914;2024-03-25T14:16:09;8.90;;;4.20;;
31910;SDS011;18457;52.432;16.914;2024-03-25T14:18:41;7.30;;;5.10;;
31910;SDS011;18457;52.432;16.914;2024-03-25T14:21:12;6.20;;;4.10;;
31910;SDS011;18457;52.432;16.914;2024-03-25T14:23:47;7.90;;;4.40;;
31910;SDS011;18457;52.432;16.914;2024-03-25T14:26:19;5.20;;;3.70;;
31910;SDS011;18457;52.432;16.914;2024-03-25T14:28:51;7.70;;;4.10;;
31910;SDS011;18457;52.432;16.914;2024-03-25T14:31:22;7.50;;;4.70;;
31910;SDS011;18457;52.432;16.914;2024-03-25T14:33:53;8.80;;;4.40;;
31910;SDS011;18457;52.432;16.914;2024-03-25T14:36:25;5.50;;;3.80;;
31910;SDS011;18457;52.432;16.914;2024-03-25T14:38:56;7.20;;;4.40;;
31910;SDS011;18457;52.432;16.914;2024-03-25T14:41:28;7.70;;;3.70;;
31910;SDS011;18457;52.432;16.914;2024-03-25T14:44:09;6.00;;;3.40;;
31910;SDS011;18457;52.432;16.914;2024-03-25T14:46:41;5.40;;;4.10;;
31910;SDS011;18457;52.432;16.914;2024-03-25T14:49:12;6.10;;;4.30;;
31910;SDS011;18457;52.432;16.914;2024-03-25T14:51:46;5.90;;;4.20;;
31910;SDS011;18457;52.432;16.914;2024-03-25T14:54:18;5.10;;;3.30;;
31910;SDS011;18457;52.432;16.914;2024-03-25T14:56:50;5.80;;;3.40;;
31910;SDS011;18457;52.432;16.914;2024-03-25T14:59:21;5.50;;;3.40;;
31910;SDS011;18457;52.432;16.914;2024-03-25T15:01:53;7.10;;;4.40;;
31910;SDS011;18457;52.432;16.914;2024-03-25T15:04:27;8.20;;;4.30;;
31910;SDS011;18457;52.432;16.914;2024-03-25T15:06:59;5.40;;;3.50;;
31910;SDS011;18457;52.432;16.914;2024-03-25T15:09:30;6.90;;;4.30;;